sensor_id;sensor_type;location;lat;lon;timestamp;P1;durP1;ratioP1;P2;durP2;ratioP2
55537;SDS011;41383;51.418;7.286;2023-03-01T00:01:44;13.45;;;9.38;;
55537;SDS011;41383;51.418;7.286;2023-03-01T00:04:10;17.17;;;9.48;;
55537;SDS011;41383;51.418;7.286;2023-03-01T00:06:35;18.67;;;10.70;;
55537;SDS011;41383;51.418;7.286;2023-03-01T00:09:00;15.48;;;9.18;;
55537;SDS011;41383;51.418;7.286;2023-03-01T00:11:29;17.67;;;9.95;;
55537;SDS011;41383;51.418;7.286;2023-03-01T00:13:58;16.15;;;10.68;;
55537;SDS011;41383;51.418;7.286;2023-03-01T00:16:30;14.55;;;11.23;;
55537;SDS011;41383;51.418;7.286;2023-03-01T00:18:58;13.10;;;8.82;;
55537;SDS011;41383;51.418;7.286;2023-03-01T00:21:24;20.55;;;12.30;;
55537;SDS011;41383;51.418;7.286;2023-03-01T00:23:51;15.77;;;9.70;;
55537;SDS011;41383;51.418;7.286;2023-03-01T00:26:17;18.05;;;10.63;;
55537;SDS011;41383;51.418;7.286;2023-03-01T00:28:44;15.55;;;11.25;;
55537;SDS011;41383;51.418;7.286;2023-03-01T00:31:13;16.80;;;9.95;;
55537;SDS011;41383;51.418;7.286;2023-03-01T00:33:41;19.77;;;11.73;;
55537;SDS011;41383;51.418;7.286;2023-03-01T00:36:07;20.27;;;11.93;;
55537;SDS011;41383;51.418;7.286;2023-03-01T00:38:40;21.42;;;10.60;;
55537;SDS011;41383;51.418;7.286;2023-03-01T00:41:07;14.63;;;9.52;;
55537;SDS011;41383;51.418;7.286;2023-03-01T00:43:39;17.40;;;11.25;;
55537;SDS011;41383;51.418;7.286;2023-03-01T00:46:05;21.95;;;11.43;;
55537;SDS011;41383;51.418;7.286;2023-03-01T00:48:33;18.23;;;11.13;;
55537;SDS011;41383;51.418;7.286;2023-03-01T00:51:15;22.35;;;11.80;;
55537;SDS011;41383;51.418;7.286;2023-03-01T00:53:40;19.52;;;11.35;;
55537;SDS011;41383;51.418;7.286;2023-03-01T00:56:06;19.80;;;11.90;;
55537;SDS011;41383;51.418;7.286;2023-03-01T00:58:33;20.05;;;11.65;;
55537;SDS011;41383;51.418;7.286;2023-03-01T01:01:00;18.73;;;10.40;;
55537;SDS011;41383;51.418;7.286;2023-03-01T01:03:25;19.27;;;11.93;;
55537;SDS011;41383;51.418;7.286;2023-03-01T01:05:51;20.02;;;10.25;;
55537;SDS011;41383;51.418;7.286;2023-03-01T01:08:18;20.48;;;12.25;;
55537;SDS011;41383;51.418;7.286;2023-03-01T01:10:44;17.65;;;10.82;;
55537;SDS011;41383;51.418;7.286;2023-03-01T01:13:10;17.17;;;10.57;;
55537;SDS011;41383;51.418;7.286;2023-03-01T01:15:35;20.05;;;11.25;;
55537;SDS011;41383;51.418;7.286;2023-03-01T01:18:01;22.52;;;11.85;;
55537;SDS011;41383;51.418;7.286;2023-03-01T01:20:27;17.08;;;12.02;;
55537;SDS011;41383;51.418;7.286;2023-03-01T01:22:52;23.90;;;12.27;;
55537;SDS011;41383;51.418;7.286;2023-03-01T01:25:18;16.77;;;9.60;;
55537;SDS011;41383;51.418;7.286;2023-03-01T01:27:44;18.00;;;11.82;;
55537;SDS011;41383;51.418;7.286;2023-03-01T01:30:09;19.88;;;12.13;;
55537;SDS011;41383;51.418;7.286;2023-03-01T01:32:35;17.58;;;10.20;;
55537;SDS011;41383;51.418;7.286;2023-03-01T01:35:00;23.50;;;11.83;;
55537;SDS011;41383;51.418;7.286;2023-03-01T01:37:25;16.55;;;11.30;;
55537;SDS011;41383;51.418;7.286;2023-03-01T01:39:56;18.05;;;12.05;;
55537;SDS011;41383;51.418;7.286;2023-03-01T01:42:23;16.05;;;10.35;;
55537;SDS011;41383;51.418;7.286;2023-03-01T01:44:48;16.40;;;10.52;;
55537;SDS011;41383;51.418;7.286;2023-03-01T01:47:33;15.20;;;10.85;;
55537;SDS011;41383;51.418;7.286;2023-03-01T01:49:58;15.03;;;9.80;;
55537;SDS011;41383;51.418;7.286;2023-03-01T01:52:27;16.67;;;10.60;;
55537;SDS011;41383;51.418;7.286;2023-03-01T01:57:37;19.23;;;11.65;;
55537;SDS011;41383;51.418;7.286;2023-03-01T02:00:16;20.48;;;10.80;;
55537;SDS011;41383;51.418;7.286;2023-03-01T02:02:44;23.70;;;11.27;;
55537;SDS011;41383;51.418;7.286;2023-03-01T02:08:14;18.45;;;11.85;;
55537;SDS011;41383;51.418;7.286;2023-03-01T02:10:43;18.52;;;10.15;;
55537;SDS011;41383;51.418;7.286;2023-03-01T02:13:10;13.82;;;9.50;;
55537;SDS011;41383;51.418;7.286;2023-03-01T02:15:37;18.38;;;9.82;;
55537;SDS011;41383;51.418;7.286;2023-03-01T02:18:04;22.58;;;12.38;;
55537;SDS011;41383;51.418;7.286;2023-03-01T02:20:43;22.95;;;10.38;;
55537;SDS011;41383;51.418;7.286;2023-03-01T02:23:28;14.90;;;9.82;;
55537;SDS011;41383;51.418;7.286;2023-03-01T02:25:58;18.05;;;10.55;;
55537;SDS011;41383;51.418;7.286;2023-03-01T02:28:32;18.25;;;11.65;;
55537;SDS011;41383;51.418;7.286;2023-03-01T02:31:00;18.13;;;11.18;;
55537;SDS011;41383;51.418;7.286;2023-03-01T02:33:45;16.52;;;10.88;;
55537;SDS011;41383;51.418;7.286;2023-03-01T02:36:14;22.02;;;11.20;;
55537;SDS011;41383;51.418;7.286;2023-03-01T02:38:43;19.60;;;11.65;;
55537;SDS011;41383;51.418;7.286;2023-03-01T02:41:09;18.58;;;10.63;;
55537;SDS011;41383;51.418;7.286;2023-03-01T02:43:39;21.20;;;12.30;;
55537;SDS011;41383;51.418;7.286;2023-03-01T02:46:06;20.42;;;11.15;;
55537;SDS011;41383;51.418;7.286;2023-03-01T02:51:17;23.75;;;11.43;;
55537;SDS011;41383;51.418;7.286;2023-03-01T02:54:10;19.80;;;11.50;;
55537;SDS011;41383;51.418;7.286;2023-03-01T02:56:48;22.17;;;11.77;;
55537;SDS011;41383;51.418;7.286;2023-03-01T02:59:15;25.25;;;12.00;;
55537;SDS011;41383;51.418;7.286;2023-03-01T03:01:42;19.80;;;11.27;;
55537;SDS011;41383;51.418;7.286;2023-03-01T03:04:09;19.05;;;10.85;;
55537;SDS011;41383;51.418;7.286;2023-03-01T03:06:42;16.83;;;10.07;;
55537;SDS011;41383;51.418;7.286;2023-03-01T03:09:08;16.35;;;10.00;;
55537;SDS011;41383;51.418;7.286;2023-03-01T03:11:34;16.30;;;9.90;;
55537;SDS011;41383;51.418;7.286;2023-03-01T03:13:59;13.93;;;10.25;;
55537;SDS011;41383;51.418;7.286;2023-03-01T03:16:24;18.65;;;10.45;;
55537;SDS011;41383;51.418;7.286;2023-03-01T03:18:50;18.58;;;9.55;;
55537;SDS011;41383;51.418;7.286;2023-03-01T03:21:15;18.83;;;10.82;;
55537;SDS011;41383;51.418;7.286;2023-03-01T03:23:41;30.33;;;10.70;;
55537;SDS011;41383;51.418;7.286;2023-03-01T03:26:07;22.23;;;10.10;;
55537;SDS011;41383;51.418;7.286;2023-03-01T03:28:33;20.38;;;13.45;;
55537;SDS011;41383;51.418;7.286;2023-03-01T03:30:59;17.95;;;12.68;;
55537;SDS011;41383;51.418;7.286;2023-03-01T03:33:29;21.50;;;13.05;;
55537;SDS011;41383;51.418;7.286;2023-03-01T03:35:58;20.38;;;13.48;;
55537;SDS011;41383;51.418;7.286;2023-03-01T03:38:23;20.60;;;12.88;;
55537;SDS011;41383;51.418;7.286;2023-03-01T03:40:51;23.40;;;13.45;;
55537;SDS011;41383;51.418;7.286;2023-03-01T03:43:25;18.48;;;13.18;;
55537;SDS011;41383;51.418;7.286;2023-03-01T03:45:51;20.98;;;12.70;;
55537;SDS011;41383;51.418;7.286;2023-03-01T03:48:17;23.67;;;12.07;;
55537;SDS011;41383;51.418;7.286;2023-03-01T03:50:47;20.75;;;12.15;;
55537;SDS011;41383;51.418;7.286;2023-03-01T03:53:14;19.98;;;13.13;;
55537;SDS011;41383;51.418;7.286;2023-03-01T03:55:40;17.95;;;12.30;;
55537;SDS011;41383;51.418;7.286;2023-03-01T03:58:06;27.25;;;13.70;;
55537;SDS011;41383;51.418;7.286;2023-03-01T04:00:37;25.23;;;11.65;;
55537;SDS011;41383;51.418;7.286;2023-03-01T04:03:04;20.23;;;13.00;;
55537;SDS011;41383;51.418;7.286;2023-03-01T04:05:29;18.35;;;11.02;;
55537;SDS011;41383;51.418;7.286;2023-03-01T04:07:55;18.92;;;12.15;;
55537;SDS011;41383;51.418;7.286;2023-03-01T04:10:29;19.83;;;12.45;;
55537;SDS011;41383;51.418;7.286;2023-03-01T04:12:56;19.98;;;10.60;;
55537;SDS011;41383;51.418;7.286;2023-03-01T04:15:22;22.33;;;13.68;;
55537;SDS011;41383;51.418;7.286;2023-03-01T04:17:50;20.05;;;12.07;;
55537;SDS011;41383;51.418;7.286;2023-03-01T04:20:18;18.23;;;12.05;;
55537;SDS011;41383;51.418;7.286;2023-03-01T04:22:51;22.48;;;13.00;;
55537;SDS011;41383;51.418;7.286;2023-03-01T04:25:22;18.90;;;12.63;;
55537;SDS011;41383;51.418;7.286;2023-03-01T04:27:47;18.50;;;11.30;;
55537;SDS011;41383;51.418;7.286;2023-03-01T04:30:13;22.53;;;12.03;;
55537;SDS011;41383;51.418;7.286;2023-03-01T04:32:38;23.98;;;13.15;;
55537;SDS011;41383;51.418;7.286;2023-03-01T04:35:03;24.65;;;12.15;;
55537;SDS011;41383;51.418;7.286;2023-03-01T04:37:29;14.40;;;11.35;;
55537;SDS011;41383;51.418;7.286;2023-03-01T04:39:54;23.20;;;12.52;;
55537;SDS011;41383;51.418;7.286;2023-03-01T04:42:20;24.27;;;14.55;;
55537;SDS011;41383;51.418;7.286;2023-03-01T04:44:45;22.00;;;13.73;;
55537;SDS011;41383;51.418;7.286;2023-03-01T04:47:11;25.55;;;15.23;;
55537;SDS011;41383;51.418;7.286;2023-03-01T04:49:37;33.78;;;13.77;;
55537;SDS011;41383;51.418;7.286;2023-03-01T04:52:02;25.75;;;13.55;;
55537;SDS011;41383;51.418;7.286;2023-03-01T04:54:28;27.00;;;14.43;;
55537;SDS011;41383;51.418;7.286;2023-03-01T04:56:57;22.55;;;12.38;;
55537;SDS011;41383;51.418;7.286;2023-03-01T04:59:23;21.10;;;12.63;;
55537;SDS011;41383;51.418;7.286;2023-03-01T05:01:49;24.75;;;12.88;;
55537;SDS011;41383;51.418;7.286;2023-03-01T05:04:21;20.70;;;14.10;;
55537;SDS011;41383;51.418;7.286;2023-03-01T05:06:47;18.92;;;13.23;;
55537;SDS011;41383;51.418;7.286;2023-03-01T05:09:12;19.03;;;14.13;;
55537;SDS011;41383;51.418;7.286;2023-03-01T05:11:37;22.02;;;14.10;;
55537;SDS011;41383;51.418;7.286;2023-03-01T05:14:03;21.10;;;12.85;;
55537;SDS011;41383;51.418;7.286;2023-03-01T05:16:29;26.50;;;13.32;;
55537;SDS011;41383;51.418;7.286;2023-03-01T05:18:55;26.00;;;15.35;;
55537;SDS011;41383;51.418;7.286;2023-03-01T05:21:21;28.23;;;14.40;;
55537;SDS011;41383;51.418;7.286;2023-03-01T05:23:47;21.48;;;13.88;;
55537;SDS011;41383;51.418;7.286;2023-03-01T05:26:12;23.52;;;12.48;;
55537;SDS011;41383;51.418;7.286;2023-03-01T05:28:38;20.38;;;12.02;;
55537;SDS011;41383;51.418;7.286;2023-03-01T05:31:04;19.30;;;12.05;;
55537;SDS011;41383;51.418;7.286;2023-03-01T05:33:34;19.52;;;14.13;;
55537;SDS011;41383;51.418;7.286;2023-03-01T05:36:00;20.70;;;12.80;;
55537;SDS011;41383;51.418;7.286;2023-03-01T05:38:26;20.35;;;11.88;;
55537;SDS011;41383;51.418;7.286;2023-03-01T05:40:51;19.42;;;14.25;;
55537;SDS011;41383;51.418;7.286;2023-03-01T05:43:16;24.52;;;14.68;;
55537;SDS011;41383;51.418;7.286;2023-03-01T05:45:43;22.15;;;13.60;;
55537;SDS011;41383;51.418;7.286;2023-03-01T05:48:09;26.92;;;14.85;;
55537;SDS011;41383;51.418;7.286;2023-03-01T05:50:35;18.55;;;11.95;;
55537;SDS011;41383;51.418;7.286;2023-03-01T05:53:06;24.30;;;13.93;;
55537;SDS011;41383;51.418;7.286;2023-03-01T05:55:34;21.85;;;14.18;;
55537;SDS011;41383;51.418;7.286;2023-03-01T05:58:01;24.55;;;12.35;;
55537;SDS011;41383;51.418;7.286;2023-03-01T06:00:28;21.10;;;14.30;;
55537;SDS011;41383;51.418;7.286;2023-03-01T06:02:55;21.60;;;13.82;;
55537;SDS011;41383;51.418;7.286;2023-03-01T06:05:22;22.73;;;14.68;;
55537;SDS011;41383;51.418;7.286;2023-03-01T06:07:48;19.30;;;13.25;;
55537;SDS011;41383;51.418;7.286;2023-03-01T06:10:14;20.35;;;12.65;;
55537;SDS011;41383;51.418;7.286;2023-03-01T06:12:41;20.17;;;12.15;;
55537;SDS011;41383;51.418;7.286;2023-03-01T06:15:07;22.40;;;12.80;;
55537;SDS011;41383;51.418;7.286;2023-03-01T06:17:34;22.67;;;13.00;;
55537;SDS011;41383;51.418;7.286;2023-03-01T06:20:03;22.60;;;12.75;;
55537;SDS011;41383;51.418;7.286;2023-03-01T06:22:30;22.15;;;13.45;;
55537;SDS011;41383;51.418;7.286;2023-03-01T06:24:55;19.63;;;12.65;;
55537;SDS011;41383;51.418;7.286;2023-03-01T06:27:20;24.38;;;13.70;;
55537;SDS011;41383;51.418;7.286;2023-03-01T06:29:45;24.30;;;13.80;;
55537;SDS011;41383;51.418;7.286;2023-03-01T06:32:11;20.20;;;12.57;;
55537;SDS011;41383;51.418;7.286;2023-03-01T06:34:36;20.83;;;11.90;;
55537;SDS011;41383;51.418;7.286;2023-03-01T06:37:01;19.30;;;11.80;;
55537;SDS011;41383;51.418;7.286;2023-03-01T06:39:30;27.20;;;14.90;;
55537;SDS011;41383;51.418;7.286;2023-03-01T06:41:55;17.95;;;13.35;;
55537;SDS011;41383;51.418;7.286;2023-03-01T06:44:21;22.67;;;14.02;;
55537;SDS011;41383;51.418;7.286;2023-03-01T06:46:46;22.92;;;13.45;;
55537;SDS011;41383;51.418;7.286;2023-03-01T06:49:11;23.75;;;12.73;;
55537;SDS011;41383;51.418;7.286;2023-03-01T06:51:37;20.15;;;11.70;;
55537;SDS011;41383;51.418;7.286;2023-03-01T06:54:03;24.00;;;13.77;;
55537;SDS011;41383;51.418;7.286;2023-03-01T06:56:30;19.58;;;10.05;;
55537;SDS011;41383;51.418;7.286;2023-03-01T06:58:56;17.23;;;11.45;;
55537;SDS011;41383;51.418;7.286;2023-03-01T07:01:22;19.20;;;11.40;;
55537;SDS011;41383;51.418;7.286;2023-03-01T07:03:47;21.00;;;12.63;;
55537;SDS011;41383;51.418;7.286;2023-03-01T07:06:12;18.67;;;11.45;;
55537;SDS011;41383;51.418;7.286;2023-03-01T07:08:37;20.92;;;11.13;;
55537;SDS011;41383;51.418;7.286;2023-03-01T07:11:03;19.80;;;11.95;;
55537;SDS011;41383;51.418;7.286;2023-03-01T07:13:29;18.02;;;11.70;;
55537;SDS011;41383;51.418;7.286;2023-03-01T07:15:54;18.92;;;10.27;;
55537;SDS011;41383;51.418;7.286;2023-03-01T07:18:20;19.27;;;11.52;;
55537;SDS011;41383;51.418;7.286;2023-03-01T07:20:45;20.23;;;11.30;;
55537;SDS011;41383;51.418;7.286;2023-03-01T07:23:11;19.33;;;11.07;;
55537;SDS011;41383;51.418;7.286;2023-03-01T07:25:36;19.35;;;11.05;;
55537;SDS011;41383;51.418;7.286;2023-03-01T07:28:01;20.55;;;12.50;;
55537;SDS011;41383;51.418;7.286;2023-03-01T07:30:27;21.48;;;11.45;;
55537;SDS011;41383;51.418;7.286;2023-03-01T07:32:53;18.55;;;11.20;;
55537;SDS011;41383;51.418;7.286;2023-03-01T07:35:20;21.80;;;12.77;;
55537;SDS011;41383;51.418;7.286;2023-03-01T07:37:45;21.50;;;10.30;;
55537;SDS011;41383;51.418;7.286;2023-03-01T07:40:11;21.00;;;12.10;;
55537;SDS011;41383;51.418;7.286;2023-03-01T07:42:37;20.35;;;10.95;;
55537;SDS011;41383;51.418;7.286;2023-03-01T07:45:03;20.75;;;14.05;;
55537;SDS011;41383;51.418;7.286;2023-03-01T07:47:29;18.52;;;10.82;;
55537;SDS011;41383;51.418;7.286;2023-03-01T07:49:55;25.65;;;11.68;;
55537;SDS011;41383;51.418;7.286;2023-03-01T07:52:20;23.45;;;14.35;;
55537;SDS011;41383;51.418;7.286;2023-03-01T07:54:45;26.52;;;14.45;;
55537;SDS011;41383;51.418;7.286;2023-03-01T07:57:10;40.75;;;15.90;;
55537;SDS011;41383;51.418;7.286;2023-03-01T07:59:36;27.25;;;15.30;;
55537;SDS011;41383;51.418;7.286;2023-03-01T08:02:01;21.33;;;13.10;;
55537;SDS011;41383;51.418;7.286;2023-03-01T08:04:28;23.88;;;14.88;;
55537;SDS011;41383;51.418;7.286;2023-03-01T08:06:53;21.40;;;13.50;;
55537;SDS011;41383;51.418;7.286;2023-03-01T08:09:19;25.83;;;14.60;;
55537;SDS011;41383;51.418;7.286;2023-03-01T08:11:45;27.02;;;15.43;;
55537;SDS011;41383;51.418;7.286;2023-03-01T08:14:11;27.63;;;18.55;;
55537;SDS011;41383;51.418;7.286;2023-03-01T08:16:36;27.05;;;15.10;;
55537;SDS011;41383;51.418;7.286;2023-03-01T08:19:05;29.50;;;15.77;;
55537;SDS011;41383;51.418;7.286;2023-03-01T08:21:35;24.83;;;14.27;;
55537;SDS011;41383;51.418;7.286;2023-03-01T08:24:02;18.92;;;13.07;;
55537;SDS011;41383;51.418;7.286;2023-03-01T08:26:28;24.77;;;12.80;;
55537;SDS011;41383;51.418;7.286;2023-03-01T08:28:54;22.83;;;12.40;;
55537;SDS011;41383;51.418;7.286;2023-03-01T08:31:20;22.98;;;11.95;;
55537;SDS011;41383;51.418;7.286;2023-03-01T08:33:49;19.63;;;11.15;;
55537;SDS011;41383;51.418;7.286;2023-03-01T08:36:20;29.38;;;16.65;;
55537;SDS011;41383;51.418;7.286;2023-03-01T08:38:46;28.77;;;15.23;;
55537;SDS011;41383;51.418;7.286;2023-03-01T08:41:12;27.47;;;12.47;;
55537;SDS011;41383;51.418;7.286;2023-03-01T08:43:38;25.15;;;13.10;;
55537;SDS011;41383;51.418;7.286;2023-03-01T08:46:03;27.85;;;15.50;;
55537;SDS011;41383;51.418;7.286;2023-03-01T08:48:28;43.67;;;12.90;;
55537;SDS011;41383;51.418;7.286;2023-03-01T08:50:54;25.05;;;12.60;;
55537;SDS011;41383;51.418;7.286;2023-03-01T08:53:19;24.85;;;13.63;;
55537;SDS011;41383;51.418;7.286;2023-03-01T08:55:45;22.80;;;11.10;;
55537;SDS011;41383;51.418;7.286;2023-03-01T08:58:10;18.00;;;9.63;;
55537;SDS011;41383;51.418;7.286;2023-03-01T09:00:35;25.13;;;12.20;;
55537;SDS011;41383;51.418;7.286;2023-03-01T09:03:01;19.85;;;11.18;;
55537;SDS011;41383;51.418;7.286;2023-03-01T09:05:32;22.60;;;11.43;;
55537;SDS011;41383;51.418;7.286;2023-03-01T09:07:58;16.98;;;11.60;;
55537;SDS011;41383;51.418;7.286;2023-03-01T09:10:23;17.40;;;10.10;;
55537;SDS011;41383;51.418;7.286;2023-03-01T09:12:49;20.05;;;9.63;;
55537;SDS011;41383;51.418;7.286;2023-03-01T09:15:14;17.07;;;9.27;;
55537;SDS011;41383;51.418;7.286;2023-03-01T09:17:39;18.40;;;7.88;;
55537;SDS011;41383;51.418;7.286;2023-03-01T09:20:05;13.15;;;9.18;;
55537;SDS011;41383;51.418;7.286;2023-03-01T09:22:32;24.45;;;8.07;;
55537;SDS011;41383;51.418;7.286;2023-03-01T09:24:58;14.98;;;8.18;;
55537;SDS011;41383;51.418;7.286;2023-03-01T09:27:24;14.65;;;9.38;;
55537;SDS011;41383;51.418;7.286;2023-03-01T09:29:50;13.57;;;7.43;;
55537;SDS011;41383;51.418;7.286;2023-03-01T09:32:15;16.85;;;8.27;;
55537;SDS011;41383;51.418;7.286;2023-03-01T09:34:40;14.57;;;8.25;;
55537;SDS011;41383;51.418;7.286;2023-03-01T09:37:41;13.27;;;6.38;;
55537;SDS011;41383;51.418;7.286;2023-03-01T09:40:13;15.32;;;8.10;;
55537;SDS011;41383;51.418;7.286;2023-03-01T09:42:46;15.52;;;6.40;;
55537;SDS011;41383;51.418;7.286;2023-03-01T09:45:21;13.70;;;7.53;;
55537;SDS011;41383;51.418;7.286;2023-03-01T09:47:52;13.80;;;6.38;;
55537;SDS011;41383;51.418;7.286;2023-03-01T09:50:19;16.90;;;8.65;;
55537;SDS011;41383;51.418;7.286;2023-03-01T09:52:46;15.20;;;7.70;;
55537;SDS011;41383;51.418;7.286;2023-03-01T09:55:14;17.25;;;7.35;;
55537;SDS011;41383;51.418;7.286;2023-03-01T09:57:45;14.07;;;8.18;;
55537;SDS011;41383;51.418;7.286;2023-03-01T10:00:13;13.95;;;6.80;;
55537;SDS011;41383;51.418;7.286;2023-03-01T10:03:01;14.35;;;8.25;;
55537;SDS011;41383;51.418;7.286;2023-03-01T10:05:41;13.70;;;7.43;;
55537;SDS011;41383;51.418;7.286;2023-03-01T10:11:27;13.63;;;7.18;;
55537;SDS011;41383;51.418;7.286;2023-03-01T10:14:01;13.52;;;7.55;;
55537;SDS011;41383;51.418;7.286;2023-03-01T10:16:40;14.73;;;6.50;;
55537;SDS011;41383;51.418;7.286;2023-03-01T10:19:28;17.20;;;8.35;;
55537;SDS011;41383;51.418;7.286;2023-03-01T10:21:58;13.75;;;8.15;;
55537;SDS011;41383;51.418;7.286;2023-03-01T10:24:29;19.08;;;7.93;;
55537;SDS011;41383;51.418;7.286;2023-03-01T10:27:22;12.32;;;6.15;;
55537;SDS011;41383;51.418;7.286;2023-03-01T10:30:02;16.45;;;8.30;;
55537;SDS011;41383;51.418;7.286;2023-03-01T10:32:36;11.52;;;7.55;;
55537;SDS011;41383;51.418;7.286;2023-03-01T10:35:14;11.35;;;6.13;;
55537;SDS011;41383;51.418;7.286;2023-03-01T10:40:32;10.93;;;5.87;;
55537;SDS011;41383;51.418;7.286;2023-03-01T10:42:59;10.52;;;6.22;;
55537;SDS011;41383;51.418;7.286;2023-03-01T10:45:35;11.68;;;6.32;;
55537;SDS011;41383;51.418;7.286;2023-03-01T10:50:45;13.45;;;6.13;;
55537;SDS011;41383;51.418;7.286;2023-03-01T10:58:37;13.80;;;6.03;;
55537;SDS011;41383;51.418;7.286;2023-03-01T11:01:26;15.32;;;6.75;;
55537;SDS011;41383;51.418;7.286;2023-03-01T11:06:35;14.07;;;6.85;;
55537;SDS011;41383;51.418;7.286;2023-03-01T11:09:13;21.05;;;6.53;;
55537;SDS011;41383;51.418;7.286;2023-03-01T11:11:40;13.13;;;6.85;;
55537;SDS011;41383;51.418;7.286;2023-03-01T11:16:42;13.52;;;6.00;;
55537;SDS011;41383;51.418;7.286;2023-03-01T11:22:20;15.50;;;6.60;;
55537;SDS011;41383;51.418;7.286;2023-03-01T11:24:26;12.88;;;7.18;;
55537;SDS011;41383;51.418;7.286;2023-03-01T11:27:28;15.90;;;7.03;;
55537;SDS011;41383;51.418;7.286;2023-03-01T11:30:00;14.10;;;7.75;;
55537;SDS011;41383;51.418;7.286;2023-03-01T11:32:43;13.35;;;6.85;;
55537;SDS011;41383;51.418;7.286;2023-03-01T11:35:19;14.20;;;5.72;;
55537;SDS011;41383;51.418;7.286;2023-03-01T11:37:55;17.95;;;6.80;;
55537;SDS011;41383;51.418;7.286;2023-03-01T11:40:29;14.02;;;7.07;;
55537;SDS011;41383;51.418;7.286;2023-03-01T11:43:17;16.30;;;7.60;;
55537;SDS011;41383;51.418;7.286;2023-03-01T11:46:14;12.27;;;7.55;;
55537;SDS011;41383;51.418;7.286;2023-03-01T11:56:57;14.45;;;7.78;;
55537;SDS011;41383;51.418;7.286;2023-03-01T12:08:14;18.85;;;6.15;;
55537;SDS011;41383;51.418;7.286;2023-03-01T12:11:03;16.77;;;8.90;;
55537;SDS011;41383;51.418;7.286;2023-03-01T12:21:58;13.70;;;6.90;;
55537;SDS011;41383;51.418;7.286;2023-03-01T12:29:57;19.27;;;6.78;;
55537;SDS011;41383;51.418;7.286;2023-03-01T12:35:47;16.52;;;6.85;;
55537;SDS011;41383;51.418;7.286;2023-03-01T12:46:25;13.05;;;7.22;;
55537;SDS011;41383;51.418;7.286;2023-03-01T12:52:16;12.32;;;5.50;;
55537;SDS011;41383;51.418;7.286;2023-03-01T12:54:48;20.80;;;7.53;;
55537;SDS011;41383;51.418;7.286;2023-03-01T13:03:20;13.15;;;6.15;;
55537;SDS011;41383;51.418;7.286;2023-03-01T13:05:57;14.50;;;6.57;;
55537;SDS011;41383;51.418;7.286;2023-03-01T13:11:22;11.20;;;7.07;;
55537;SDS011;41383;51.418;7.286;2023-03-01T13:13:48;12.80;;;6.25;;
55537;SDS011;41383;51.418;7.286;2023-03-01T13:16:56;25.50;;;7.60;;
55537;SDS011;41383;51.418;7.286;2023-03-01T13:21:33;16.63;;;7.18;;
55537;SDS011;41383;51.418;7.286;2023-03-01T13:23:59;13.52;;;7.85;;
55537;SDS011;41383;51.418;7.286;2023-03-01T13:26:24;11.83;;;6.97;;
55537;SDS011;41383;51.418;7.286;2023-03-01T13:33:51;11.23;;;6.78;;
55537;SDS011;41383;51.418;7.286;2023-03-01T13:49:36;13.85;;;6.20;;
55537;SDS011;41383;51.418;7.286;2023-03-01T13:54:59;12.75;;;7.25;;
55537;SDS011;41383;51.418;7.286;2023-03-01T13:57:30;11.00;;;5.15;;
55537;SDS011;41383;51.418;7.286;2023-03-01T13:59:59;10.02;;;5.60;;
55537;SDS011;41383;51.418;7.286;2023-03-01T14:02:24;16.77;;;7.22;;
55537;SDS011;41383;51.418;7.286;2023-03-01T14:04:56;13.40;;;6.75;;
55537;SDS011;41383;51.418;7.286;2023-03-01T14:07:25;11.52;;;5.72;;
55537;SDS011;41383;51.418;7.286;2023-03-01T14:09:59;13.40;;;7.50;;
55537;SDS011;41383;51.418;7.286;2023-03-01T14:15:02;17.63;;;6.75;;
55537;SDS011;41383;51.418;7.286;2023-03-01T14:17:41;11.77;;;4.97;;
55537;SDS011;41383;51.418;7.286;2023-03-01T14:20:12;13.57;;;6.82;;
55537;SDS011;41383;51.418;7.286;2023-03-01T14:22:43;15.45;;;7.13;;
55537;SDS011;41383;51.418;7.286;2023-03-01T14:28:02;11.65;;;5.78;;
55537;SDS011;41383;51.418;7.286;2023-03-01T14:30:31;13.25;;;5.22;;
55537;SDS011;41383;51.418;7.286;2023-03-01T14:32:58;12.27;;;5.97;;
55537;SDS011;41383;51.418;7.286;2023-03-01T14:35:26;11.15;;;5.45;;
55537;SDS011;41383;51.418;7.286;2023-03-01T14:37:53;13.80;;;6.35;;
55537;SDS011;41383;51.418;7.286;2023-03-01T14:42:49;17.88;;;5.72;;
55537;SDS011;41383;51.418;7.286;2023-03-01T14:45:15;14.68;;;6.60;;
55537;SDS011;41383;51.418;7.286;2023-03-01T14:47:41;10.52;;;4.75;;
55537;SDS011;41383;51.418;7.286;2023-03-01T14:50:13;12.55;;;6.57;;
55537;SDS011;41383;51.418;7.286;2023-03-01T14:52:45;12.05;;;5.35;;
55537;SDS011;41383;51.418;7.286;2023-03-01T14:55:16;11.63;;;5.07;;
55537;SDS011;41383;51.418;7.286;2023-03-01T14:57:46;11.77;;;5.95;;
55537;SDS011;41383;51.418;7.286;2023-03-01T15:00:17;9.52;;;4.75;;
55537;SDS011;41383;51.418;7.286;2023-03-01T15:02:52;10.88;;;6.28;;
55537;SDS011;41383;51.418;7.286;2023-03-01T15:05:22;12.93;;;5.22;;
55537;SDS011;41383;51.418;7.286;2023-03-01T15:07:52;11.70;;;5.22;;
55537;SDS011;41383;51.418;7.286;2023-03-01T15:10:22;11.63;;;6.72;;
55537;SDS011;41383;51.418;7.286;2023-03-01T15:13:19;11.20;;;5.90;;
55537;SDS011;41383;51.418;7.286;2023-03-01T15:15:48;8.93;;;4.18;;
55537;SDS011;41383;51.418;7.286;2023-03-01T15:18:20;11.05;;;5.05;;
55537;SDS011;41383;51.418;7.286;2023-03-01T15:20:47;14.80;;;5.40;;
55537;SDS011;41383;51.418;7.286;2023-03-01T15:23:31;8.50;;;5.18;;
55537;SDS011;41383;51.418;7.286;2023-03-01T15:25:57;9.65;;;5.22;;
55537;SDS011;41383;51.418;7.286;2023-03-01T15:28:24;9.55;;;4.70;;
55537;SDS011;41383;51.418;7.286;2023-03-01T15:30:54;13.77;;;6.18;;
55537;SDS011;41383;51.418;7.286;2023-03-01T15:35:55;9.88;;;5.47;;
55537;SDS011;41383;51.418;7.286;2023-03-01T15:41:05;11.15;;;6.35;;
55537;SDS011;41383;51.418;7.286;2023-03-01T15:43:47;14.43;;;5.03;;
55537;SDS011;41383;51.418;7.286;2023-03-01T15:48:47;10.80;;;5.15;;
55537;SDS011;41383;51.418;7.286;2023-03-01T15:51:17;9.98;;;5.72;;
55537;SDS011;41383;51.418;7.286;2023-03-01T15:53:43;10.60;;;5.30;;
55537;SDS011;41383;51.418;7.286;2023-03-01T15:56:14;14.18;;;5.50;;
55537;SDS011;41383;51.418;7.286;2023-03-01T15:58:40;11.07;;;5.17;;
55537;SDS011;41383;51.418;7.286;2023-03-01T16:01:09;12.27;;;5.22;;
55537;SDS011;41383;51.418;7.286;2023-03-01T16:03:37;14.73;;;5.72;;
55537;SDS011;41383;51.418;7.286;2023-03-01T16:06:03;11.20;;;6.17;;
55537;SDS011;41383;51.418;7.286;2023-03-01T16:08:28;10.38;;;5.20;;
55537;SDS011;41383;51.418;7.286;2023-03-01T16:10:54;8.98;;;5.03;;
55537;SDS011;41383;51.418;7.286;2023-03-01T16:13:19;10.65;;;5.70;;
55537;SDS011;41383;51.418;7.286;2023-03-01T16:15:44;15.35;;;5.97;;
55537;SDS011;41383;51.418;7.286;2023-03-01T16:18:10;11.20;;;6.03;;
55537;SDS011;41383;51.418;7.286;2023-03-01T16:20:36;9.75;;;4.90;;
55537;SDS011;41383;51.418;7.286;2023-03-01T16:23:03;10.63;;;5.28;;
55537;SDS011;41383;51.418;7.286;2023-03-01T16:25:33;11.00;;;4.95;;
55537;SDS011;41383;51.418;7.286;2023-03-01T16:27:59;8.48;;;5.10;;
55537;SDS011;41383;51.418;7.286;2023-03-01T16:30:29;10.82;;;5.88;;
55537;SDS011;41383;51.418;7.286;2023-03-01T16:32:55;15.43;;;7.75;;
55537;SDS011;41383;51.418;7.286;2023-03-01T16:35:20;15.13;;;5.33;;
55537;SDS011;41383;51.418;7.286;2023-03-01T16:37:46;12.55;;;5.60;;
55537;SDS011;41383;51.418;7.286;2023-03-01T16:40:16;9.50;;;4.68;;
55537;SDS011;41383;51.418;7.286;2023-03-01T16:42:44;11.63;;;5.25;;